LGTSLGKR

Guest
Details From LGTS - Thessalonik Makedonia
To LGKR - Ioannis Kapodistrias Intl
Flight Number -
Tags Generated
Created
Modified
Stats Distance 150 nm / 279 km
Max Altitude 0 ft / 0 m
Waypoints 2
Social Downloads 0
Likes 0
Share VATSIM

Download

Looking for another format? Having issues loading an existing format? Contact us
Advertisement - Login to hide

Notes

Generated

Route

LGTS LGKR

ID Type Via Altitude Latitude Longitude Leg Dist Tot Dist Heading (true) Name
O LGTS APT - 0 ft / 0 m 40.52196˚ 22.95907˚ - 0 nm - -
O LGKR APT - 0 ft / 0 m 39.61228˚ 19.90921˚ 150 nm 150 nm 250° / 248° -

Altitude Profile

Advertisement - Login to hide

LGTS

Details ICAO LGTS (SKG)
Name Thessalonik Makedonia
Region Greece
Timezone Europe/Athens (UTC+2.0)
Stats Elevation 22 ft / 7 m (AMSL)
Location 40.519522° 22.972017°
Runways 2
Magnetic Variation 4.623° E

METAR

LGTS 160450Z 12010KT 9999 FEW030 15/06 Q1007 NOSIG

Decode

TAF

TAF LGTS 152300Z 1600/1624 14010KT 9999 SCT030 TEMPO 1603/1616 14015G25KT PROB40 TEMPO 1612/1624 7000 RA FEW010 BKN025 PROB30 TEMPO 1615/1622 4000 TSRA SCT010 FEW015CB BKN020 BECMG 1619/1621 VRB03KT

Decode

Departure Runways

ID Width Length Bearing (true) Bearing (mag) Surface Threshold Offset Overrun Length
10 164 ft / 50 m 7,990 ft / 2,435 m 103.95° 99.33° Asphalt 0 ft / 0 m 150 ft / 46 m
16 197 ft / 60 m 7,927 ft / 2,416 m 166.35° 161.73° Asphalt 0 ft / 0 m 200 ft / 61 m
28 164 ft / 50 m 7,990 ft / 2,435 m 283.97° 279.35° Asphalt 0 ft / 0 m 150 ft / 46 m
34 197 ft / 60 m 7,927 ft / 2,416 m 346.36° 341.74° Asphalt 0 ft / 0 m 200 ft / 61 m

LGKR

Details ICAO LGKR (CFU)
Name IOANNIS KAPODISTRIAS INTL
Region Greece
Timezone Europe/Athens (UTC+2.0)
Stats Elevation 6 ft / 2 m (AMSL)
Location 39.601779° 19.911908°
Runways 1
Magnetic Variation 4.098° E

METAR

LGKR 160450Z 16016KT 9999 SCT010 BKN025 17/15 Q1009 NOSIG

Decode

TAF

TAF LGKR 152300Z 1600/1624 18015KT 9999 SCT015 BKN025 PROB40 TEMPO 1600/1618 5000 RA SCT010 BKN020 BKN080 PROB30 TEMPO 1606/1615 4000 TSRA SCT010 FEW018CB BKN020 BECMG 1610/1612 24018KT BECMG 1618/1620 16005KT

Decode

Destination Runways

ID Width Length Bearing (true) Bearing (mag) Surface Threshold Offset Overrun Length
17 148 ft / 45 m 7,815 ft / 2,382 m 168.81° 164.71° Asphalt 1,348 ft / 411 m 0 ft / 0 m
35 148 ft / 45 m 7,815 ft / 2,382 m 348.81° 344.71° Asphalt 213 ft / 65 m 0 ft / 0 m

Popular Alternatives